createdAt,value
2023-05-17T00:01:17.650Z,100374.79
2023-05-17T00:03:50.988Z,100369.67
2023-05-17T00:06:24.379Z,100370.33
2023-05-17T00:08:57.219Z,100378.86
2023-05-17T00:11:30.210Z,100374.45
2023-05-17T00:14:03.759Z,100378.70
2023-05-17T00:16:37.360Z,100385.26
2023-05-17T00:19:10.479Z,100378.97
2023-05-17T00:21:43.508Z,100377.59
2023-05-17T00:24:16.462Z,100384.75
2023-05-17T00:26:49.462Z,100382.72
2023-05-17T00:29:22.533Z,100378.12
2023-05-17T00:31:55.424Z,100375.85
2023-05-17T00:34:28.448Z,100379.78
2023-05-17T00:37:01.269Z,100377.59
2023-05-17T00:39:34.317Z,100371.11
2023-05-17T00:42:07.737Z,100380.20
2023-05-17T00:44:41.145Z,100380.86
2023-05-17T00:47:14.190Z,100377.20
2023-05-17T00:49:47.115Z,100374.66
2023-05-17T00:52:20.090Z,100379.58
2023-05-17T00:54:54.065Z,100372.80
2023-05-17T00:57:28.978Z,100368.28
2023-05-17T01:00:02.326Z,100370.44
2023-05-17T01:02:35.727Z,100371.33
2023-05-17T01:05:09.504Z,100365.50
2023-05-17T01:07:42.987Z,100371.97
2023-05-17T01:10:16.171Z,100372.23
2023-05-17T01:13:11.441Z,100376.42
2023-05-17T01:15:48.184Z,100376.11
2023-05-17T01:18:47.095Z,100380.30
2023-05-17T01:22:01.863Z,100380.52
2023-05-17T01:25:00.422Z,100375.20
2023-05-17T01:27:34.308Z,100375.70
2023-05-17T01:30:08.818Z,100373.75
2023-05-17T01:32:43.622Z,100364.97
2023-05-17T01:35:17.621Z,100364.08
2023-05-17T01:37:51.202Z,100364.97
2023-05-17T01:40:24.386Z,100357.88
2023-05-17T01:43:12.369Z,100359.48
2023-05-17T01:46:06.608Z,100361.22
2023-05-17T01:48:44.205Z,100358.10
2023-05-17T01:51:20.866Z,100358.10
2023-05-17T01:54:00.999Z,100363.76
2023-05-17T01:56:36.356Z,100367.95
2023-05-17T01:59:09.857Z,100361.55
2023-05-17T02:01:44.374Z,100365.27
2023-05-17T02:04:17.419Z,100361.89
2023-05-17T02:06:50.416Z,100363.84
2023-05-17T02:09:23.640Z,100366.72
2023-05-17T02:11:56.660Z,100366.14
2023-05-17T02:14:30.366Z,100368.67
2023-05-17T02:17:05.254Z,100373.35
2023-05-17T02:19:38.223Z,100373.35
2023-05-17T02:22:12.289Z,100373.69
2023-05-17T02:24:45.016Z,100368.38
2023-05-17T02:27:18.092Z,100377.36
2023-05-17T02:29:50.890Z,100379.98
2023-05-17T02:32:24.073Z,100382.34
2023-05-17T02:34:57.854Z,100380.36
2023-05-17T02:37:30.692Z,100375.30
2023-05-17T02:40:04.505Z,100375.08
2023-05-17T02:42:39.298Z,100380.95
2023-05-17T02:45:12.781Z,100383.17
2023-05-17T02:47:45.856Z,100381.95
2023-05-17T02:50:19.041Z,100381.36
2023-05-17T02:52:51.981Z,100378.90
2023-05-17T02:55:25.048Z,100379.23
2023-05-17T02:57:58.176Z,100381.83
2023-05-17T03:00:31.354Z,100387.55
2023-05-17T03:03:04.520Z,100390.83
2023-05-17T03:05:37.573Z,100397.84
2023-05-17T03:08:10.872Z,100397.84
2023-05-17T03:10:43.679Z,100399.32
2023-05-17T03:13:17.519Z,100395.70
2023-05-17T03:15:50.887Z,100391.29
2023-05-17T03:18:24.259Z,100396.50
2023-05-17T03:20:59.883Z,100398.31
2023-05-17T03:23:33.613Z,100410.23
2023-05-17T03:26:08.002Z,100406.92
2023-05-17T03:28:43.044Z,100416.64
2023-05-17T03:31:15.886Z,100415.36
2023-05-17T03:33:49.007Z,100415.24
2023-05-17T03:36:22.734Z,100407.33
2023-05-17T03:38:55.928Z,100405.72
2023-05-17T03:41:29.178Z,100411.28
2023-05-17T03:44:02.175Z,100411.52
2023-05-17T03:46:36.101Z,100408.75
2023-05-17T03:49:09.920Z,100412.20
2023-05-17T03:51:43.790Z,100409.87
2023-05-17T03:54:16.776Z,100413.19
2023-05-17T03:56:50.527Z,100408.53
2023-05-17T03:59:23.568Z,100409.08
2023-05-17T04:01:56.503Z,100401.31
2023-05-17T04:04:29.415Z,100403.69
2023-05-17T04:07:02.506Z,100409.80
2023-05-17T04:09:35.393Z,100400.88
2023-05-17T04:12:09.455Z,100403.37
2023-05-17T04:14:41.786Z,100395.47
2023-05-17T04:17:16.784Z,100397.30
2023-05-17T04:19:51.109Z,100402.17
2023-05-17T04:22:25.889Z,100404.38
2023-05-17T04:24:58.704Z,100408.81
2023-05-17T04:27:32.351Z,100403.95
2023-05-17T04:30:05.780Z,100407.44
2023-05-17T04:32:38.859Z,100418.80
2023-05-17T04:35:11.959Z,100418.92
2023-05-17T04:37:46.979Z,100418.67
2023-05-17T04:40:25.040Z,100420.98
2023-05-17T04:42:58.166Z,100427.29
2023-05-17T04:45:33.680Z,100433.13
2023-05-17T04:48:07.326Z,100433.68
2023-05-17T04:50:40.534Z,100437.80
2023-05-17T04:53:13.722Z,100440.01
2023-05-17T04:55:48.955Z,100438.80
2023-05-17T04:58:22.176Z,100441.50
2023-05-17T05:00:56.746Z,100448.20
2023-05-17T05:03:29.871Z,100448.38
2023-05-17T05:06:04.612Z,100443.27
2023-05-17T05:08:38.015Z,100442.12
2023-05-17T05:11:12.905Z,100441.84
2023-05-17T05:13:46.596Z,100438.48
2023-05-17T05:16:19.810Z,100443.11
2023-05-17T05:18:54.242Z,100451.24
2023-05-17T05:21:27.650Z,100451.46
2023-05-17T05:24:00.948Z,100449.04
2023-05-17T05:26:34.171Z,100458.00
2023-05-17T05:29:08.041Z,100458.22
2023-05-17T05:31:41.476Z,100454.48
2023-05-17T05:34:14.662Z,100450.84
2023-05-17T05:36:47.732Z,100461.70
2023-05-17T05:39:20.827Z,100456.73
2023-05-17T05:41:53.761Z,100464.43
2023-05-17T05:44:26.842Z,100465.91
2023-05-17T05:47:00.017Z,100464.84
2023-05-17T05:49:33.071Z,100461.17
2023-05-17T05:52:06.289Z,100458.83
2023-05-17T05:54:39.554Z,100457.76
2023-05-17T05:57:12.844Z,100459.76
2023-05-17T05:59:46.027Z,100453.39
2023-05-17T06:02:20.086Z,100455.83
2023-05-17T06:04:52.931Z,100453.78
2023-05-17T06:07:25.825Z,100457.05
2023-05-17T06:09:58.907Z,100456.75
2023-05-17T06:12:32.901Z,100452.97
2023-05-17T06:15:06.577Z,100451.39
2023-05-17T06:17:39.961Z,100451.53
2023-05-17T06:20:13.525Z,100451.66
2023-05-17T06:22:46.660Z,100451.39
2023-05-17T06:25:19.690Z,100451.45
2023-05-17T06:27:52.652Z,100455.55
2023-05-17T06:30:27.652Z,100450.30
2023-05-17T06:33:01.787Z,100452.20
2023-05-17T06:35:47.532Z,100449.64
2023-05-17T06:38:09.291Z,100452.77
2023-05-17T06:40:42.380Z,100448.88
2023-05-17T06:43:15.349Z,100451.25
2023-05-17T06:45:48.211Z,100449.09
2023-05-17T06:48:21.881Z,100452.34
2023-05-17T06:50:54.953Z,100452.34
2023-05-17T06:53:28.091Z,100446.66
2023-05-17T06:56:01.118Z,100452.43
2023-05-17T06:58:35.922Z,100450.72
2023-05-17T07:01:09.158Z,100447.70
2023-05-17T07:03:44.643Z,100449.16
2023-05-17T07:06:17.776Z,100454.22
2023-05-17T07:08:51.119Z,100445.03
2023-05-17T07:11:24.007Z,100442.88
2023-05-17T07:13:56.903Z,100452.70
2023-05-17T07:16:29.992Z,100458.59
2023-05-17T07:19:02.976Z,100455.58
2023-05-17T07:21:37.077Z,100456.95
2023-05-17T07:24:10.046Z,100451.29
2023-05-17T07:26:44.175Z,100460.59
2023-05-17T07:29:17.109Z,100455.86
2023-05-17T07:31:51.866Z,100450.61
2023-05-17T07:34:24.495Z,100451.97
2023-05-17T07:36:59.710Z,100450.36
2023-05-17T07:39:32.594Z,100447.86
2023-05-17T07:42:05.919Z,100437.38
2023-05-17T07:44:38.789Z,100437.91
2023-05-17T07:47:11.569Z,100440.66
2023-05-17T07:49:44.615Z,100438.63
2023-05-17T07:52:17.430Z,100445.81
2023-05-17T07:54:50.899Z,100438.38
2023-05-17T07:57:24.230Z,100448.13
2023-05-17T07:59:56.924Z,100435.28
2023-05-17T08:02:29.966Z,100437.53
2023-05-17T08:05:02.954Z,100438.45
2023-05-17T08:07:36.308Z,100434.44
2023-05-17T08:10:09.989Z,100436.57
2023-05-17T08:12:43.194Z,100436.72
2023-05-17T08:15:16.072Z,100429.80
2023-05-17T08:17:49.296Z,100434.38
2023-05-17T08:20:23.009Z,100435.48
2023-05-17T08:22:56.384Z,100439.01
2023-05-17T08:25:29.394Z,100444.31
2023-05-17T08:28:03.104Z,100432.05
2023-05-17T08:30:36.481Z,100428.13
2023-05-17T08:33:11.814Z,100438.91
2023-05-17T08:35:44.644Z,100436.31
2023-05-17T08:38:20.018Z,100433.73
2023-05-17T08:41:00.162Z,100425.84
2023-05-17T08:43:33.768Z,100425.56
2023-05-17T08:46:06.968Z,100415.05
2023-05-17T08:48:42.375Z,100418.71
2023-05-17T08:51:15.400Z,100422.66
2023-05-17T08:53:50.954Z,100416.34
2023-05-17T08:56:25.624Z,100423.42
2023-05-17T08:58:59.200Z,100417.77
2023-05-17T09:01:33.276Z,100407.63
2023-05-17T09:04:07.317Z,100401.00
2023-05-17T09:06:40.166Z,100400.20
2023-05-17T09:09:13.342Z,100403.36
2023-05-17T09:11:47.338Z,100405.31
2023-05-17T09:14:20.197Z,100405.43
2023-05-17T09:16:58.654Z,100403.24
2023-05-17T09:19:33.000Z,100399.73
2023-05-17T09:22:05.170Z,100402.92
2023-05-17T09:24:37.951Z,100397.70
2023-05-17T09:27:10.904Z,100396.87
2023-05-17T09:29:45.272Z,100390.70
2023-05-17T09:32:21.917Z,100392.58
2023-05-17T09:34:56.316Z,100381.22
2023-05-17T09:37:29.115Z,100386.69
2023-05-17T09:40:04.446Z,100391.60
2023-05-17T09:42:39.440Z,100383.74
2023-05-17T09:45:14.056Z,100386.13
2023-05-17T09:47:48.423Z,100390.76
2023-05-17T09:50:23.258Z,100394.41
2023-05-17T09:52:55.783Z,100379.71
2023-05-17T09:55:30.011Z,100381.02
2023-05-17T09:58:06.546Z,100373.54
2023-05-17T10:00:39.847Z,100379.79
2023-05-17T10:03:14.185Z,100376.69
2023-05-17T10:05:48.229Z,100375.34
2023-05-17T10:08:26.262Z,100372.70
2023-05-17T10:11:11.840Z,100371.45
2023-05-17T10:13:51.945Z,100358.68
2023-05-17T10:16:25.281Z,100359.58
2023-05-17T10:18:58.199Z,100357.47
2023-05-17T10:21:34.696Z,100355.80
2023-05-17T10:24:08.741Z,100355.39
2023-05-17T10:26:40.965Z,100351.88
2023-05-17T10:29:14.087Z,100342.59
2023-05-17T10:31:47.827Z,100343.90
2023-05-17T10:34:22.056Z,100351.00
2023-05-17T10:36:55.790Z,100344.42
2023-05-17T10:39:29.286Z,100345.33
2023-05-17T10:42:14.315Z,100340.45
2023-05-17T10:44:39.262Z,100338.72
2023-05-17T10:47:13.002Z,100341.02
2023-05-17T10:49:48.675Z,100331.38
2023-05-17T10:52:24.970Z,100335.45
2023-05-17T10:54:58.726Z,100333.22
2023-05-17T11:00:13.278Z,100329.79
2023-05-17T11:02:45.653Z,100318.37
2023-05-17T11:05:28.793Z,100322.40
2023-05-17T11:08:20.928Z,100326.85
2023-05-17T11:11:14.400Z,100330.91
2023-05-17T11:13:53.905Z,100322.55
2023-05-17T11:16:39.818Z,100326.14
2023-05-17T11:19:13.940Z,100320.41
2023-05-17T11:21:50.373Z,100311.56
2023-05-17T11:24:28.950Z,100308.06
2023-05-17T11:27:02.506Z,100304.56
2023-05-17T11:29:35.808Z,100305.05
2023-05-17T11:32:11.601Z,100303.29
2023-05-17T11:34:44.485Z,100307.28
2023-05-17T11:37:21.160Z,100311.30
2023-05-17T11:40:10.481Z,100310.48
2023-05-17T11:42:45.511Z,100303.45
2023-05-17T11:45:18.518Z,100305.74
2023-05-17T11:47:52.997Z,100297.80
2023-05-17T11:50:26.193Z,100292.09
2023-05-17T11:53:00.624Z,100289.04
2023-05-17T11:55:34.812Z,100297.08
2023-05-17T11:58:11.122Z,100295.77
2023-05-17T12:00:45.496Z,100294.45
2023-05-17T12:03:25.051Z,100284.61
2023-05-17T12:06:16.414Z,100281.04
2023-05-17T12:08:50.253Z,100276.59
2023-05-17T12:11:24.131Z,100277.48
2023-05-17T12:13:57.325Z,100274.37
2023-05-17T12:16:32.812Z,100267.70
2023-05-17T12:19:06.050Z,100263.70
2023-05-17T12:21:41.280Z,100268.60
2023-05-17T12:24:14.428Z,100267.75
2023-05-17T12:26:50.427Z,100258.91
2023-05-17T12:29:25.183Z,100258.95
2023-05-17T12:31:58.445Z,100251.91
2023-05-17T12:34:32.367Z,100249.77
2023-05-17T12:37:07.332Z,100252.45
2023-05-17T12:39:41.144Z,100242.31
2023-05-17T12:42:14.288Z,100233.89
2023-05-17T12:44:47.707Z,100237.03
2023-05-17T12:47:20.536Z,100229.45
2023-05-17T12:49:59.341Z,100229.89
2023-05-17T12:52:38.172Z,100229.42
2023-05-17T12:55:14.832Z,100235.58
2023-05-17T12:57:57.685Z,100219.58
2023-05-17T13:00:31.158Z,100219.13
2023-05-17T13:03:06.058Z,100219.13
2023-05-17T13:05:41.638Z,100219.19
2023-05-17T13:08:24.825Z,100224.09
2023-05-17T13:11:12.104Z,100217.42
2023-05-17T13:13:44.875Z,100218.33
2023-05-17T13:16:17.793Z,100214.77
2023-05-17T13:18:53.521Z,100218.77
2023-05-17T13:21:27.184Z,100216.98
2023-05-17T13:23:59.906Z,100216.54
2023-05-17T13:26:33.164Z,100209.42
2023-05-17T13:29:06.522Z,100201.42
2023-05-17T13:31:39.491Z,100201.42
2023-05-17T13:34:12.465Z,100198.34
2023-05-17T13:36:45.697Z,100204.13
2023-05-17T13:39:19.890Z,100202.79
2023-05-17T13:41:53.250Z,100199.25
2023-05-17T13:44:26.209Z,100201.46
2023-05-17T13:46:59.056Z,100193.45
2023-05-17T13:49:32.251Z,100195.22
2023-05-17T13:52:06.947Z,100189.00
2023-05-17T13:54:40.653Z,100187.20
2023-05-17T13:57:13.872Z,100189.87
2023-05-17T13:59:47.266Z,100181.45
2023-05-17T14:02:20.407Z,100184.55
2023-05-17T14:04:53.248Z,100181.00
2023-05-17T14:07:26.652Z,100185.87
2023-05-17T14:09:59.661Z,100184.55
2023-05-17T14:12:32.697Z,100179.66
2023-05-17T14:15:06.470Z,100174.32
2023-05-17T14:17:39.548Z,100186.78
2023-05-17T14:20:14.310Z,100184.11
2023-05-17T14:22:47.411Z,100181.02
2023-05-17T14:25:20.563Z,100176.98
2023-05-17T14:27:54.618Z,100175.66
2023-05-17T14:30:26.785Z,100182.78
2023-05-17T14:32:59.582Z,100174.33
2023-05-17T14:35:32.687Z,100176.11
2023-05-17T14:38:05.865Z,100170.32
2023-05-17T14:40:39.362Z,100170.78
2023-05-17T14:43:12.334Z,100171.23
2023-05-17T14:45:45.519Z,100172.56
2023-05-17T14:48:18.581Z,100170.31
2023-05-17T14:50:53.166Z,100168.09
2023-05-17T14:53:29.639Z,100172.09
2023-05-17T14:56:02.560Z,100167.67
2023-05-17T14:58:36.048Z,100159.66
2023-05-17T15:01:09.531Z,100164.09
2023-05-17T15:03:42.530Z,100163.66
2023-05-17T15:06:15.591Z,100160.08
2023-05-17T15:08:48.886Z,100165.87
2023-05-17T15:11:22.127Z,100161.00
2023-05-17T15:13:55.246Z,100152.55
2023-05-17T15:16:28.007Z,100156.09
2023-05-17T15:19:02.067Z,100144.91
2023-05-17T15:21:35.221Z,100146.67
2023-05-17T15:24:08.853Z,100150.69
2023-05-17T15:26:43.256Z,100147.16
2023-05-17T15:29:16.366Z,100145.83
2023-05-17T15:31:49.378Z,100148.98
2023-05-17T15:34:24.645Z,100149.41
2023-05-17T15:36:58.686Z,100148.97
2023-05-17T15:39:31.722Z,100152.52
2023-05-17T15:42:04.967Z,100152.55
2023-05-17T15:44:37.902Z,100152.98
2023-05-17T15:47:10.946Z,100154.31
2023-05-17T15:49:43.991Z,100153.42
2023-05-17T15:52:16.900Z,100156.53
2023-05-17T15:54:50.892Z,100151.56
2023-05-17T15:57:23.814Z,100156.86
2023-05-17T15:59:57.201Z,100155.47
2023-05-17T16:02:30.518Z,100163.02
2023-05-17T16:05:04.108Z,100170.08
2023-05-17T16:07:37.590Z,100156.25
2023-05-17T16:10:12.037Z,100165.14
2023-05-17T16:12:45.125Z,100156.23
2023-05-17T16:15:18.323Z,100160.67
2023-05-17T16:17:53.819Z,100160.28
2023-05-17T16:20:27.210Z,100159.47
2023-05-17T16:23:00.280Z,100153.80
2023-05-17T16:25:33.442Z,100158.75
2023-05-17T16:28:06.364Z,100154.77
2023-05-17T16:30:39.858Z,100158.76
2023-05-17T16:33:14.722Z,100156.86
2023-05-17T16:35:52.315Z,100160.33
2023-05-17T16:38:25.821Z,100160.62
2023-05-17T16:41:00.584Z,100161.41
2023-05-17T16:43:33.713Z,100157.74
2023-05-17T16:46:06.701Z,100156.72
2023-05-17T16:48:39.824Z,100149.95
2023-05-17T16:51:12.687Z,100153.75
2023-05-17T16:53:45.698Z,100150.06
2023-05-17T16:56:18.837Z,100155.66
2023-05-17T16:58:53.050Z,100151.09
2023-05-17T17:01:26.491Z,100154.46
2023-05-17T17:03:59.808Z,100152.52
2023-05-17T17:06:34.281Z,100155.48
2023-05-17T17:09:08.480Z,100154.03
2023-05-17T17:11:41.841Z,100151.26
2023-05-17T17:14:15.262Z,100155.59
2023-05-17T17:16:48.301Z,100154.55
2023-05-17T17:19:22.140Z,100158.42
2023-05-17T17:21:55.153Z,100157.42
2023-05-17T17:24:28.444Z,100158.16
2023-05-17T17:27:01.218Z,100151.38
2023-05-17T17:29:34.524Z,100161.03
2023-05-17T17:32:09.129Z,100163.59
2023-05-17T17:34:42.114Z,100160.86
2023-05-17T17:37:15.236Z,100174.48
2023-05-17T17:39:48.091Z,100176.59
2023-05-17T17:42:21.900Z,100173.39
2023-05-17T17:44:55.675Z,100175.97
2023-05-17T17:47:28.576Z,100185.14
2023-05-17T17:50:01.314Z,100179.75
2023-05-17T17:52:34.662Z,100186.30
2023-05-17T17:55:10.931Z,100181.80
2023-05-17T17:57:43.888Z,100183.01
2023-05-17T18:00:17.075Z,100189.07
2023-05-17T18:02:50.395Z,100192.95
2023-05-17T18:05:25.308Z,100191.98
2023-05-17T18:07:58.456Z,100200.22
2023-05-17T18:10:31.885Z,100198.17
2023-05-17T18:13:05.528Z,100204.09
2023-05-17T18:15:38.712Z,100203.39
2023-05-17T18:18:12.143Z,100205.36
2023-05-17T18:20:45.194Z,100207.33
2023-05-17T18:23:18.479Z,100201.34
2023-05-17T18:25:52.131Z,100202.89
2023-05-17T18:28:38.024Z,100202.20
2023-05-17T18:30:59.519Z,100207.67
2023-05-17T18:33:34.374Z,100213.58
2023-05-17T18:36:07.669Z,100214.67
2023-05-17T18:38:41.585Z,100211.80
2023-05-17T18:41:14.351Z,100211.59
2023-05-17T18:43:47.123Z,100211.80
2023-05-17T18:46:20.153Z,100211.06
2023-05-17T18:48:52.981Z,100209.14
2023-05-17T18:51:26.082Z,100204.97
2023-05-17T18:53:58.911Z,100212.33
2023-05-17T18:56:33.058Z,100213.91
2023-05-17T18:59:05.525Z,100209.34
2023-05-17T19:01:38.595Z,100213.61
2023-05-17T19:04:11.554Z,100211.20
2023-05-17T19:06:44.885Z,100209.27
2023-05-17T19:09:17.857Z,100204.29
2023-05-17T19:11:50.719Z,100205.52
2023-05-17T19:14:24.167Z,100209.87
2023-05-17T19:16:57.213Z,100201.34
2023-05-17T19:19:31.543Z,100208.72
2023-05-17T19:22:05.739Z,100202.87
2023-05-17T19:24:38.453Z,100199.56
2023-05-17T19:27:13.840Z,100204.73
2023-05-17T19:29:49.972Z,100201.87
2023-05-17T19:32:23.121Z,100203.36
2023-05-17T19:34:56.036Z,100200.96
2023-05-17T19:37:29.626Z,100207.45
2023-05-17T19:40:02.422Z,100200.33
2023-05-17T19:42:35.696Z,100205.95
2023-05-17T19:45:11.436Z,100203.60
2023-05-17T19:47:45.192Z,100198.62
2023-05-17T19:50:18.034Z,100206.86
2023-05-17T19:52:51.086Z,100201.05
2023-05-17T19:55:25.264Z,100206.62
2023-05-17T19:57:58.947Z,100195.97
2023-05-17T20:00:33.937Z,100201.55
2023-05-17T20:03:07.731Z,100205.48
2023-05-17T20:05:41.063Z,100204.06
2023-05-17T20:08:13.870Z,100204.81
2023-05-17T20:10:46.733Z,100198.56
2023-05-17T20:13:21.228Z,100198.86
2023-05-17T20:15:54.564Z,100192.16
2023-05-17T20:18:30.806Z,100194.30
2023-05-17T20:21:03.652Z,100197.28
2023-05-17T20:23:36.752Z,100198.05
2023-05-17T20:26:11.182Z,100195.80
2023-05-17T20:28:45.356Z,100193.50
2023-05-17T20:31:18.427Z,100195.64
2023-05-17T20:33:52.064Z,100192.91
2023-05-17T20:36:26.118Z,100191.88
2023-05-17T20:38:59.117Z,100190.84
2023-05-17T20:41:32.111Z,100189.47
2023-05-17T20:44:05.370Z,100182.83
2023-05-17T20:46:38.904Z,100197.64
2023-05-17T20:49:12.177Z,100196.17
2023-05-17T20:51:45.165Z,100196.55
2023-05-17T20:54:17.924Z,100199.40
2023-05-17T20:56:50.782Z,100195.23
2023-05-17T20:59:24.040Z,100195.95
2023-05-17T21:01:56.878Z,100184.83
2023-05-17T21:04:29.746Z,100191.78
2023-05-17T21:07:02.826Z,100194.80
2023-05-17T21:09:36.461Z,100190.73
2023-05-17T21:12:09.551Z,100187.16
2023-05-17T21:14:42.540Z,100184.88
2023-05-17T21:17:15.986Z,100178.56
2023-05-17T21:19:48.791Z,100183.71
2023-05-17T21:22:21.674Z,100184.43
2023-05-17T21:24:54.439Z,100179.11
2023-05-17T21:27:27.762Z,100181.29
2023-05-17T21:30:01.352Z,100177.73
2023-05-17T21:32:34.341Z,100178.11
2023-05-17T21:35:07.734Z,100175.37
2023-05-17T21:37:42.181Z,100175.69
2023-05-17T21:40:14.803Z,100172.94
2023-05-17T21:42:48.208Z,100172.31
2023-05-17T21:45:22.143Z,100171.31
2023-05-17T21:47:54.951Z,100169.48
2023-05-17T21:50:28.394Z,100169.77
2023-05-17T21:53:01.541Z,100167.08
2023-05-17T21:55:40.897Z,100160.88
2023-05-17T21:58:07.816Z,100164.16
2023-05-17T22:00:40.924Z,100167.53
2023-05-17T22:03:13.962Z,100166.05
2023-05-17T22:05:46.930Z,100169.81
2023-05-17T22:08:19.815Z,100159.66
2023-05-17T22:10:54.161Z,100165.75
2023-05-17T22:13:29.351Z,100161.80
2023-05-17T22:16:02.237Z,100165.38
2023-05-17T22:18:36.023Z,100169.33
2023-05-17T22:21:09.077Z,100162.36
2023-05-17T22:23:42.665Z,100165.81
2023-05-17T22:26:15.414Z,100164.81
2023-05-17T22:28:48.485Z,100165.14
2023-05-17T22:31:21.599Z,100168.91
2023-05-17T22:33:54.435Z,100163.53
2023-05-17T22:36:27.253Z,100168.70
2023-05-17T22:39:01.150Z,100164.21
2023-05-17T22:41:34.200Z,100165.47
2023-05-17T22:44:07.204Z,100166.66
2023-05-17T22:46:42.465Z,100163.48
2023-05-17T22:49:17.359Z,100160.80
2023-05-17T22:51:50.051Z,100162.91
2023-05-17T22:54:22.876Z,100168.86
2023-05-17T22:56:55.630Z,100160.28
2023-05-17T22:59:28.881Z,100165.35
2023-05-17T23:02:03.398Z,100164.67
2023-05-17T23:04:38.152Z,100171.48
2023-05-17T23:07:10.892Z,100164.80
2023-05-17T23:09:43.875Z,100172.19
2023-05-17T23:12:17.598Z,100159.41
2023-05-17T23:14:50.340Z,100157.22
2023-05-17T23:17:23.040Z,100154.98
2023-05-17T23:19:56.079Z,100157.22
2023-05-17T23:22:31.908Z,100161.92
2023-05-17T23:25:06.356Z,100156.48
2023-05-17T23:27:39.232Z,100159.47
2023-05-17T23:30:12.743Z,100158.55
2023-05-17T23:32:47.038Z,100161.54
2023-05-17T23:35:19.655Z,100157.97
2023-05-17T23:37:52.488Z,100160.10
2023-05-17T23:40:26.278Z,100156.95
2023-05-17T23:42:59.047Z,100159.58
2023-05-17T23:45:32.424Z,100161.78
2023-05-17T23:48:05.560Z,100159.52
2023-05-17T23:50:39.502Z,100157.64
2023-05-17T23:53:12.250Z,100155.25
2023-05-17T23:55:46.433Z,100154.60
2023-05-17T23:58:19.181Z,100148.86
